createdAt,value
2019-01-04T00:01:43.285Z,5.90
2019-01-04T00:04:27.328Z,5.87
2019-01-04T00:06:57.754Z,5.83
2019-01-04T00:09:28.288Z,5.50
2019-01-04T00:11:58.808Z,6.17
2019-01-04T00:14:29.698Z,5.13
2019-01-04T00:17:00.224Z,5.80
2019-01-04T00:19:30.883Z,5.70
2019-01-04T00:22:01.600Z,5.83
2019-01-04T00:24:32.198Z,5.97
2019-01-04T00:27:02.861Z,6.17
2019-01-04T00:29:33.768Z,5.93
2019-01-04T00:32:04.456Z,5.77
2019-01-04T00:34:38.668Z,6.07
2019-01-04T00:37:09.647Z,5.57
2019-01-04T00:39:40.281Z,5.23
2019-01-04T00:42:11.178Z,5.33
2019-01-04T00:44:41.898Z,5.80
2019-01-04T00:47:12.628Z,5.63
2019-01-04T00:49:43.213Z,5.50
2019-01-04T00:52:13.772Z,6.47
2019-01-04T00:54:44.409Z,5.70
2019-01-04T00:57:57.984Z,6.13
2019-01-04T01:01:22.990Z,6.33
2019-01-04T01:04:35.047Z,5.63
2019-01-04T01:07:33.827Z,5.90
2019-01-04T01:10:44.371Z,5.73
2019-01-04T01:14:02.999Z,5.93
2019-01-04T01:17:30.938Z,6.13
2019-01-04T01:20:58.858Z,5.77
2019-01-04T01:24:17.943Z,5.97
2019-01-04T01:27:46.006Z,5.73
2019-01-04T01:31:04.201Z,5.73
2019-01-04T01:34:12.050Z,5.47
2019-01-04T01:37:27.227Z,5.27
2019-01-04T01:40:43.481Z,5.70
2019-01-04T01:44:11.337Z,4.97
2019-01-04T01:47:23.658Z,4.93
2019-01-04T01:50:51.512Z,5.57
2019-01-04T01:53:21.927Z,5.00
2019-01-04T01:55:52.514Z,5.20
2019-01-04T01:58:22.998Z,5.13
2019-01-04T02:00:53.611Z,4.93
2019-01-04T02:03:23.999Z,5.30
2019-01-04T02:05:54.479Z,4.60
2019-01-04T02:08:25.238Z,4.40
2019-01-04T02:10:55.791Z,4.67
2019-01-04T02:13:26.469Z,5.10
2019-01-04T02:15:57.003Z,4.37
2019-01-04T02:18:27.567Z,4.97
2019-01-04T02:20:58.421Z,4.83
2019-01-04T02:23:29.112Z,4.33
2019-01-04T02:25:59.643Z,4.53
2019-01-04T02:28:30.068Z,5.10
2019-01-04T02:31:00.697Z,4.73
2019-01-04T02:33:31.369Z,4.37
2019-01-04T02:36:02.129Z,4.90
2019-01-04T02:38:32.694Z,4.93
2019-01-04T02:41:03.321Z,5.07
2019-01-04T02:43:33.808Z,4.90
2019-01-04T02:46:04.467Z,4.73
2019-01-04T02:48:34.996Z,4.63
2019-01-04T02:51:05.547Z,4.83
2019-01-04T02:53:36.248Z,5.17
2019-01-04T02:56:06.944Z,4.23
2019-01-04T02:58:37.403Z,4.40
2019-01-04T03:01:08.767Z,3.83
2019-01-04T03:03:39.448Z,4.27
2019-01-04T03:06:10.157Z,4.23
2019-01-04T03:08:40.767Z,4.27
2019-01-04T03:11:11.252Z,3.90
2019-01-04T03:13:42.127Z,3.73
2019-01-04T03:16:12.587Z,3.90
2019-01-04T03:18:43.137Z,4.80
2019-01-04T03:21:13.734Z,4.23
2019-01-04T03:23:44.342Z,3.50
2019-01-04T03:26:14.867Z,3.57
2019-01-04T03:28:45.448Z,4.03
2019-01-04T03:31:15.952Z,4.03
2019-01-04T03:33:46.651Z,4.23
2019-01-04T03:36:17.030Z,3.90
2019-01-04T03:38:47.531Z,3.23
2019-01-04T03:41:18.007Z,3.73
2019-01-04T03:43:48.500Z,5.13
2019-01-04T03:46:18.944Z,4.20
2019-01-04T03:48:49.590Z,6.33
2019-01-04T03:51:20.116Z,3.83
2019-01-04T03:53:50.828Z,3.90
2019-01-04T03:56:21.317Z,5.27
2019-01-04T03:58:51.848Z,4.83
2019-01-04T04:01:22.349Z,4.73
2019-01-04T04:03:52.800Z,4.93
2019-01-04T04:06:23.258Z,4.13
2019-01-04T04:08:53.883Z,4.23
2019-01-04T04:11:24.421Z,4.70
2019-01-04T04:13:54.893Z,5.27
2019-01-04T04:16:25.449Z,5.50
2019-01-04T04:18:56.003Z,5.33
2019-01-04T04:21:26.573Z,6.97
2019-01-04T04:23:57.250Z,6.93
2019-01-04T04:26:27.843Z,6.70
2019-01-04T04:28:58.443Z,7.33
2019-01-04T04:31:29.073Z,7.20
2019-01-04T04:33:59.717Z,7.90
2019-01-04T04:36:30.441Z,6.23
2019-01-04T04:39:00.998Z,6.83
2019-01-04T04:41:31.492Z,7.57
2019-01-04T04:44:02.041Z,6.93
2019-01-04T04:46:32.518Z,7.17
2019-01-04T04:49:03.047Z,7.43
2019-01-04T04:51:33.609Z,6.30
2019-01-04T04:54:04.263Z,7.10
2019-01-04T04:56:34.924Z,6.07
2019-01-04T04:59:05.771Z,5.43
2019-01-04T05:01:36.263Z,6.87
2019-01-04T05:04:06.799Z,5.47
2019-01-04T05:06:37.466Z,5.27
2019-01-04T05:09:08.718Z,4.70
2019-01-04T05:11:39.474Z,5.40
2019-01-04T05:14:10.051Z,6.43
2019-01-04T05:16:41.792Z,5.97
2019-01-04T05:19:13.157Z,6.97
2019-01-04T05:21:43.649Z,9.43
2019-01-04T05:24:14.109Z,11.77
2019-01-04T05:26:45.328Z,14.03
2019-01-04T05:29:16.979Z,9.63
2019-01-04T05:31:48.825Z,13.63
2019-01-04T05:34:21.041Z,13.10
2019-01-04T05:36:51.798Z,14.00
2019-01-04T05:39:22.437Z,20.90
2019-01-04T05:41:52.943Z,18.60
2019-01-04T05:44:23.826Z,15.83
2019-01-04T05:46:56.622Z,13.07
2019-01-04T05:49:28.371Z,12.50
2019-01-04T05:52:00.791Z,9.10
2019-01-04T05:54:32.724Z,6.27
2019-01-04T05:57:03.391Z,6.87
2019-01-04T05:59:33.928Z,8.53
2019-01-04T06:02:04.828Z,12.30
2019-01-04T06:04:35.598Z,7.37
2019-01-04T06:07:07.036Z,6.73
2019-01-04T06:09:38.704Z,6.13
2019-01-04T06:12:10.329Z,7.30
2019-01-04T06:14:42.530Z,7.97
2019-01-04T06:17:18.313Z,24.37
2019-01-04T06:19:49.118Z,35.73
2019-01-04T06:22:19.651Z,26.53
2019-01-04T06:24:50.379Z,44.77
2019-01-04T06:27:22.950Z,26.93
2019-01-04T06:29:58.546Z,9.97
2019-01-04T06:32:43.441Z,8.93
2019-01-04T06:35:14.848Z,8.23
2019-01-04T06:37:47.235Z,8.30
2019-01-04T06:40:18.586Z,7.43
2019-01-04T06:42:51.084Z,7.13
2019-01-04T06:45:23.840Z,6.20
2019-01-04T06:47:59.061Z,5.83
2019-01-04T06:50:33.039Z,4.60
2019-01-04T06:53:05.908Z,4.43
2019-01-04T06:56:02.352Z,5.23
2019-01-04T06:58:34.468Z,4.87
2019-01-04T07:01:06.919Z,7.70
2019-01-04T07:03:40.287Z,15.17
2019-01-04T07:06:12.857Z,19.10
2019-01-04T07:08:47.956Z,19.87
2019-01-04T07:11:21.551Z,15.97
2019-01-04T07:13:57.326Z,11.57
2019-01-04T07:16:29.939Z,9.10
2019-01-04T07:19:05.026Z,6.50
2019-01-04T07:21:41.883Z,6.03
2019-01-04T07:24:13.889Z,6.37
2019-01-04T07:26:45.722Z,4.87
2019-01-04T07:29:24.804Z,5.13
2019-01-04T07:31:59.037Z,5.30
2019-01-04T07:34:32.246Z,6.40
2019-01-04T07:37:08.536Z,7.17
2019-01-04T07:39:43.120Z,6.83
2019-01-04T07:42:18.747Z,9.47
2019-01-04T07:44:54.469Z,7.50
2019-01-04T07:47:26.969Z,8.23
2019-01-04T07:50:01.152Z,11.03
2019-01-04T07:52:32.931Z,9.83
2019-01-04T07:55:08.446Z,8.93
2019-01-04T07:57:41.356Z,8.57
2019-01-04T08:00:21.022Z,11.10
2019-01-04T08:02:57.291Z,10.87
2019-01-04T08:05:32.310Z,8.00
2019-01-04T08:08:12.805Z,10.53
2019-01-04T08:10:45.641Z,9.20
2019-01-04T08:13:18.897Z,9.20
2019-01-04T08:15:53.333Z,7.53
2019-01-04T08:18:29.737Z,7.97
2019-01-04T08:21:02.666Z,8.00
2019-01-04T08:23:41.447Z,8.43
2019-01-04T08:26:15.596Z,7.63
2019-01-04T08:28:46.417Z,7.40
2019-01-04T08:31:18.219Z,9.13
2019-01-04T08:33:54.735Z,8.87
2019-01-04T08:36:27.440Z,7.80
2019-01-04T08:39:00.147Z,7.03
2019-01-04T08:41:33.289Z,8.43
2019-01-04T08:44:05.514Z,7.43
2019-01-04T08:46:46.331Z,7.93
2019-01-04T08:49:21.340Z,7.93
2019-01-04T08:51:52.356Z,7.43
2019-01-04T08:54:23.537Z,7.10
2019-01-04T08:56:55.700Z,4.73
2019-01-04T08:59:28.642Z,5.73
2019-01-04T09:02:06.318Z,5.03
2019-01-04T09:04:41.107Z,4.67
2019-01-04T09:07:14.999Z,4.63
2019-01-04T09:09:51.035Z,4.30
2019-01-04T09:12:23.406Z,5.10
2019-01-04T09:14:57.887Z,4.70
2019-01-04T09:17:28.525Z,4.10
2019-01-04T09:20:01.729Z,4.00
2019-01-04T09:22:37.547Z,3.80
2019-01-04T09:25:11.357Z,4.10
2019-01-04T09:27:45.652Z,4.40
2019-01-04T09:30:18.546Z,4.70
2019-01-04T09:32:53.235Z,4.30
2019-01-04T09:35:28.737Z,3.37
2019-01-04T09:38:07.108Z,3.30
2019-01-04T09:40:40.186Z,3.87
2019-01-04T09:43:15.195Z,3.57
2019-01-04T09:45:48.785Z,5.90
2019-01-04T09:48:20.440Z,6.63
2019-01-04T09:50:55.484Z,6.47
2019-01-04T09:53:26.300Z,6.93
2019-01-04T09:55:56.838Z,5.33
2019-01-04T09:58:32.450Z,4.70
2019-01-04T10:01:12.837Z,4.23
2019-01-04T10:03:48.275Z,5.40
2019-01-04T10:06:23.839Z,6.23
2019-01-04T10:09:01.599Z,6.30
2019-01-04T10:11:32.563Z,6.47
2019-01-04T10:14:03.209Z,5.13
2019-01-04T10:16:33.797Z,6.27
2019-01-04T10:19:04.446Z,6.60
2019-01-04T10:21:36.023Z,7.13
2019-01-04T10:24:06.587Z,5.60
2019-01-04T10:26:37.140Z,5.13
2019-01-04T10:29:07.778Z,5.67
2019-01-04T10:31:38.477Z,5.47
2019-01-04T10:34:09.551Z,5.97
2019-01-04T10:36:40.415Z,6.87
2019-01-04T10:39:11.049Z,7.37
2019-01-04T10:41:41.632Z,8.17
2019-01-04T10:44:12.218Z,8.97
2019-01-04T10:46:42.967Z,9.33
2019-01-04T10:49:13.667Z,10.43
2019-01-04T10:51:44.498Z,9.00
2019-01-04T10:54:15.296Z,10.20
2019-01-04T10:56:45.868Z,8.67
2019-01-04T10:59:16.808Z,8.77
2019-01-04T11:01:47.599Z,10.40
2019-01-04T11:04:18.158Z,9.03
2019-01-04T11:06:48.802Z,9.40
2019-01-04T11:09:19.512Z,10.10
2019-01-04T11:11:50.062Z,9.07
2019-01-04T11:14:21.176Z,8.50
2019-01-04T11:16:51.828Z,8.00
2019-01-04T11:19:22.342Z,7.50
2019-01-04T11:22:12.167Z,8.50
2019-01-04T11:25:40.039Z,9.57
2019-01-04T11:28:44.596Z,8.50
2019-01-04T11:31:47.621Z,9.07
2019-01-04T11:35:11.707Z,7.73
2019-01-04T11:38:20.063Z,6.83
2019-01-04T11:41:40.219Z,7.50
2019-01-04T11:45:05.078Z,7.47
2019-01-04T11:48:24.453Z,6.97
2019-01-04T11:51:36.038Z,8.13
2019-01-04T11:54:13.557Z,8.77
2019-01-04T11:56:44.326Z,10.07
2019-01-04T11:59:14.858Z,9.70
2019-01-04T12:01:45.468Z,9.17
2019-01-04T12:04:16.130Z,8.53
2019-01-04T12:06:46.970Z,8.67
2019-01-04T12:09:17.516Z,8.97
2019-01-04T12:11:48.321Z,8.63
2019-01-04T12:14:18.827Z,8.23
2019-01-04T12:16:49.548Z,8.67
2019-01-04T12:19:20.095Z,10.20
2019-01-04T12:21:50.727Z,10.97
2019-01-04T12:24:21.357Z,10.73
2019-01-04T12:26:51.882Z,9.87
2019-01-04T12:29:22.733Z,12.03
2019-01-04T12:31:56.926Z,11.97
2019-01-04T12:34:30.037Z,11.87
2019-01-04T12:37:05.042Z,10.67
2019-01-04T12:39:43.052Z,12.07
2019-01-04T12:42:19.896Z,11.50
2019-01-04T12:44:53.186Z,9.13
2019-01-04T12:47:30.292Z,12.13
2019-01-04T12:50:06.882Z,12.57
2019-01-04T12:52:42.482Z,11.33
2019-01-04T12:55:18.386Z,13.33
2019-01-04T12:57:54.086Z,13.60
2019-01-04T13:00:29.826Z,20.07
2019-01-04T13:03:02.242Z,22.77
2019-01-04T13:05:33.247Z,15.80
2019-01-04T13:08:09.589Z,15.90
2019-01-04T13:10:42.487Z,16.00
2019-01-04T13:13:16.938Z,15.40
2019-01-04T13:15:49.371Z,15.53
2019-01-04T13:18:22.703Z,15.27
2019-01-04T13:20:58.177Z,15.73
2019-01-04T13:23:36.506Z,18.67
2019-01-04T13:26:08.802Z,17.93
2019-01-04T13:28:41.358Z,17.30
2019-01-04T13:31:24.537Z,17.83
2019-01-04T13:33:56.287Z,18.57
2019-01-04T13:36:30.150Z,18.80
2019-01-04T13:39:04.697Z,19.30
2019-01-04T13:41:43.546Z,19.10
2019-01-04T13:44:17.490Z,20.13
2019-01-04T13:46:52.775Z,19.53
2019-01-04T13:49:28.733Z,21.30
2019-01-04T13:52:00.227Z,27.20
2019-01-04T13:54:34.521Z,24.20
2019-01-04T13:57:05.369Z,22.97
2019-01-04T13:59:36.200Z,22.33
2019-01-04T14:02:06.967Z,19.40
2019-01-04T14:04:37.503Z,21.07
2019-01-04T14:07:08.076Z,19.67
2019-01-04T14:09:38.727Z,19.47
2019-01-04T14:12:09.237Z,19.70
2019-01-04T14:14:42.535Z,24.30
2019-01-04T14:17:14.343Z,20.73
2019-01-04T14:19:58.392Z,18.73
2019-01-04T14:22:35.360Z,19.83
2019-01-04T14:25:08.290Z,18.23
2019-01-04T14:27:40.371Z,17.97
2019-01-04T14:30:16.185Z,18.57
2019-01-04T14:32:55.644Z,17.10
2019-01-04T14:35:27.574Z,17.50
2019-01-04T14:37:59.843Z,17.53
2019-01-04T14:40:35.037Z,19.43
2019-01-04T14:43:11.130Z,18.23
2019-01-04T14:45:44.398Z,18.53
2019-01-04T14:48:18.358Z,16.90
2019-01-04T14:50:49.557Z,17.60
2019-01-04T14:53:20.274Z,16.93
2019-01-04T14:55:50.909Z,18.50
2019-01-04T14:58:22.231Z,18.27
2019-01-04T15:00:54.067Z,18.37
2019-01-04T15:03:24.736Z,16.70
2019-01-04T15:05:55.146Z,19.07
2019-01-04T15:08:25.710Z,19.77
2019-01-04T15:10:56.350Z,15.30
2019-01-04T15:13:27.060Z,13.93
2019-01-04T15:15:57.987Z,15.50
2019-01-04T15:18:28.627Z,15.53
2019-01-04T15:20:59.344Z,16.27
2019-01-04T15:23:29.926Z,15.97
2019-01-04T15:26:00.673Z,15.43
2019-01-04T15:28:31.354Z,18.10
2019-01-04T15:31:01.966Z,19.70
2019-01-04T15:33:32.627Z,18.83
2019-01-04T15:36:04.087Z,16.57
2019-01-04T15:38:43.052Z,17.57
2019-01-04T15:41:15.121Z,17.07
2019-01-04T15:43:47.139Z,17.23
2019-01-04T15:46:19.168Z,16.27
2019-01-04T15:48:50.649Z,15.20
2019-01-04T15:51:21.846Z,16.00
2019-01-04T15:53:54.464Z,15.37
2019-01-04T15:56:25.828Z,15.80
2019-01-04T15:58:58.540Z,14.37
2019-01-04T16:01:29.187Z,14.67
2019-01-04T16:03:59.715Z,12.90
2019-01-04T16:06:30.916Z,12.60
2019-01-04T16:09:02.345Z,13.67
2019-01-04T16:11:35.049Z,12.40
2019-01-04T16:14:05.841Z,13.83
2019-01-04T16:16:38.278Z,12.97
2019-01-04T16:19:09.006Z,14.57
2019-01-04T16:21:39.763Z,15.90
2019-01-04T16:24:10.319Z,15.03
2019-01-04T16:26:40.998Z,14.60
2019-01-04T16:29:11.616Z,11.67
2019-01-04T16:31:42.205Z,11.77
2019-01-04T16:34:12.752Z,13.60
2019-01-04T16:36:43.408Z,19.57
2019-01-04T16:39:14.106Z,23.03
2019-01-04T16:41:44.668Z,24.67
2019-01-04T16:44:15.337Z,16.07
2019-01-04T16:46:45.967Z,15.57
2019-01-04T16:49:16.591Z,19.73
2019-01-04T16:51:47.198Z,15.10
2019-01-04T16:54:17.857Z,12.07
2019-01-04T16:56:48.737Z,13.63
2019-01-04T16:59:19.303Z,12.00
2019-01-04T17:01:49.914Z,11.50
2019-01-04T17:04:20.677Z,10.93
2019-01-04T17:06:51.334Z,9.97
2019-01-04T17:09:22.132Z,10.27
2019-01-04T17:11:52.749Z,12.07
2019-01-04T17:14:23.287Z,12.47
2019-01-04T17:16:53.923Z,12.37
2019-01-04T17:19:24.557Z,15.80
2019-01-04T17:21:55.232Z,16.17
2019-01-04T17:24:27.032Z,14.07
2019-01-04T17:26:58.200Z,15.30
2019-01-04T17:29:28.687Z,11.73
2019-01-04T17:31:59.232Z,11.70
2019-01-04T17:34:29.908Z,13.60
2019-01-04T17:37:00.498Z,16.27
2019-01-04T17:39:30.998Z,14.80
2019-01-04T17:42:02.291Z,11.90
2019-01-04T17:44:33.031Z,14.03
2019-01-04T17:47:03.696Z,17.50
2019-01-04T17:49:34.244Z,18.13
2019-01-04T17:52:04.806Z,14.87
2019-01-04T17:54:35.250Z,14.50
2019-01-04T17:57:05.962Z,14.60
2019-01-04T17:59:36.602Z,14.27
2019-01-04T18:02:07.303Z,13.73
2019-01-04T18:04:38.012Z,14.97
2019-01-04T18:07:08.680Z,14.37
2019-01-04T18:09:40.381Z,16.57
2019-01-04T18:12:18.075Z,15.33
2019-01-04T18:14:52.413Z,16.13
2019-01-04T18:17:27.654Z,18.43
2019-01-04T18:20:01.516Z,15.27
2019-01-04T18:22:33.680Z,14.27
2019-01-04T18:25:08.767Z,15.30
2019-01-04T18:27:40.872Z,13.33
2019-01-04T18:30:12.483Z,14.93
2019-01-04T18:32:43.322Z,14.37
2019-01-04T18:35:14.064Z,16.47
2019-01-04T18:37:47.773Z,16.40
2019-01-04T18:40:18.467Z,19.70
2019-01-04T18:42:49.047Z,20.60
2019-01-04T18:45:21.982Z,21.13
2019-01-04T18:47:53.956Z,21.90
2019-01-04T18:50:24.803Z,19.40
2019-01-04T18:52:55.478Z,18.93
2019-01-04T18:55:26.172Z,21.40
2019-01-04T18:58:00.506Z,23.60
2019-01-04T19:00:33.248Z,19.27
2019-01-04T19:03:03.753Z,20.27
2019-01-04T19:05:38.687Z,19.10
2019-01-04T19:08:10.432Z,15.03
2019-01-04T19:10:47.934Z,17.87
2019-01-04T19:13:18.432Z,19.10
2019-01-04T19:15:51.639Z,19.93
2019-01-04T19:18:25.880Z,24.33
2019-01-04T19:21:00.474Z,26.30
2019-01-04T19:23:32.671Z,29.70
2019-01-04T19:26:03.287Z,24.40
2019-01-04T19:28:33.924Z,32.70
2019-01-04T19:31:05.962Z,24.17
2019-01-04T19:33:37.047Z,27.27
2019-01-04T19:36:10.875Z,26.43
2019-01-04T19:38:52.096Z,27.43
2019-01-04T19:41:26.268Z,23.80
2019-01-04T19:44:01.420Z,22.07
2019-01-04T19:46:32.184Z,22.07
2019-01-04T19:49:04.298Z,20.37
2019-01-04T19:51:35.106Z,21.63
2019-01-04T19:54:05.897Z,25.30
2019-01-04T19:56:48.180Z,24.07
2019-01-04T19:59:20.051Z,25.23
2019-01-04T20:01:57.090Z,25.10
2019-01-04T20:04:30.694Z,23.80
2019-01-04T20:08:05.672Z,22.60
2019-01-04T20:11:40.246Z,19.90
2019-01-04T20:15:17.512Z,23.00
2019-01-04T20:18:13.188Z,20.40
2019-01-04T20:21:02.898Z,22.23
2019-01-04T20:23:58.516Z,18.27
2019-01-04T20:26:50.147Z,16.67
2019-01-04T20:29:40.606Z,17.47
2019-01-04T20:32:31.082Z,19.27
2019-01-04T20:35:28.422Z,27.20
2019-01-04T20:38:19.203Z,26.27
2019-01-04T20:41:09.899Z,22.67
2019-01-04T20:44:02.448Z,23.83
2019-01-04T20:46:53.316Z,23.03
2019-01-04T20:49:43.318Z,24.37
2019-01-04T20:52:35.043Z,25.17
2019-01-04T20:55:27.057Z,22.80
2019-01-04T20:58:16.730Z,19.10
2019-01-04T21:01:10.219Z,17.60
2019-01-04T21:04:01.966Z,25.50
2019-01-04T21:06:49.087Z,25.37
2019-01-04T21:09:40.945Z,22.67
2019-01-04T21:12:30.598Z,21.60
2019-01-04T21:15:23.657Z,22.47
2019-01-04T21:18:13.264Z,24.43
2019-01-04T21:21:10.583Z,26.33
2019-01-04T21:24:03.218Z,24.57
2019-01-04T21:26:53.823Z,24.70
2019-01-04T21:29:43.533Z,19.97
2019-01-04T21:32:32.864Z,21.00
2019-01-04T21:35:22.469Z,21.37
2019-01-04T21:38:11.998Z,21.23
2019-01-04T21:41:04.523Z,20.33
2019-01-04T21:43:52.023Z,23.03
2019-01-04T21:46:42.028Z,23.10
2019-01-04T21:49:32.318Z,18.73
2019-01-04T21:52:25.378Z,18.27
2019-01-04T21:55:14.783Z,18.47
2019-01-04T21:58:07.042Z,18.43
2019-01-04T22:00:58.008Z,19.10
2019-01-04T22:03:47.107Z,20.83
2019-01-04T22:06:36.542Z,21.47
2019-01-04T22:09:27.487Z,17.73
2019-01-04T22:12:16.397Z,20.03
2019-01-04T22:15:06.256Z,20.67
2019-01-04T22:17:55.755Z,20.87
2019-01-04T22:20:45.642Z,21.67
2019-01-04T22:23:34.949Z,23.37
2019-01-04T22:26:24.366Z,22.63
2019-01-04T22:29:15.158Z,27.40
2019-01-04T22:32:04.855Z,24.00
2019-01-04T22:34:54.149Z,23.47
2019-01-04T22:37:43.482Z,22.17
2019-01-04T22:40:33.395Z,21.77
2019-01-04T22:43:22.872Z,20.93
2019-01-04T22:46:12.327Z,22.40
2019-01-04T22:49:01.627Z,20.63
2019-01-04T22:51:51.027Z,19.93
2019-01-04T22:54:40.818Z,22.60
2019-01-04T22:57:30.317Z,20.27
2019-01-04T23:00:19.807Z,22.57
2019-01-04T23:03:09.394Z,22.40
2019-01-04T23:05:59.006Z,21.20
2019-01-04T23:08:48.393Z,22.27
2019-01-04T23:11:37.819Z,22.97
2019-01-04T23:14:27.177Z,20.70
2019-01-04T23:17:16.519Z,19.83
2019-01-04T23:20:05.908Z,19.87
2019-01-04T23:23:05.007Z,18.53
2019-01-04T23:25:54.457Z,19.00
2019-01-04T23:28:44.257Z,18.87
2019-01-04T23:31:33.672Z,19.00
2019-01-04T23:34:23.487Z,18.53
2019-01-04T23:37:12.921Z,16.93
2019-01-04T23:40:02.344Z,18.03
2019-01-04T23:42:51.676Z,17.50
2019-01-04T23:45:41.236Z,17.40
2019-01-04T23:48:30.660Z,16.07
2019-01-04T23:51:20.117Z,17.23
2019-01-04T23:54:05.889Z,16.00
2019-01-04T23:56:55.278Z,15.33
2019-01-04T23:59:37.259Z,14.30
